Alamillo, New Mexico
Current Conditions -  °F | °C
As of 4:55 AM on Sunday 25 Jan 2015 (Local Time) from KONM Reporting Station
Clear Clear  
Wind Chill: 23°   Ceiling: Unl
Heat Index: 30°   Visibility: 10mi
Dew Point: 24°   Wind: 7mph
Humidity: 76%   Direction: 340°NNW
Pressure: 30.25"   Gusts: NA
Location:  34.262°N, 106.87°W
Report Text: KONM 251155Z AUTO 34006KT 10SM CLR M01/M05 A3025 RMK AO2 T10101047 10004 21023
Loading
Personal Weather Stations






























Interactive Weather Map New forecast layout! Learn more

10-Day Weather Forecast

Advertisements
Track Severe Weather on mobile